Time;durP1;ratioP1;P1;durP2;ratioP2;P2;SDS_P1;SDS_P2;PMS_P1;PMS_P2;Temp;Humidity;BMP_temperature;BMP_pressure;BME280_temperature;BME280_humidity;BME280_pressure;Samples;Min_cycle;Max_cycle;Signal;HPM_P1;HPM_P2
2021/10/08 00:02:14;;;;;;;17.60;10.95;;;333.30;2329.60;;;;;;4976732;28;20073;-88
2021/10/08 00:04:40;;;;;;;14.30;9.50;;;333.60;2329.60;;;;;;4960784;28;20030;-87
2021/10/08 00:07:08;;;;;;;12.60;8.98;;;333.60;2329.60;;;;;;4977043;28;20356;-88
2021/10/08 00:09:34;;;;;;;25.55;15.57;;;333.60;2329.60;;;;;;4961031;28;20034;-88
2021/10/08 00:12:00;;;;;;;19.42;12.25;;;333.40;2329.60;;;;;;4977003;28;20027;-88
2021/10/08 00:14:37;;;;;;;15.38;10.30;;;333.60;2329.60;;;;;;4977011;28;20027;-87
2021/10/08 00:17:04;;;;;;;17.30;9.93;;;333.60;2329.60;;;;;;4976704;28;20398;-88
2021/10/08 00:19:30;;;;;;;12.80;8.80;;;333.60;2329.60;;;;;;4976820;28;20030;-88
2021/10/08 00:21:56;;;;;;;11.85;7.95;;;333.60;2329.60;;;;;;4960694;28;20042;-89
2021/10/08 00:24:26;;;;;;;12.48;8.50;;;333.40;2329.60;;;;;;4976524;28;20025;-87
2021/10/08 00:26:55;;;;;;;18.48;10.65;;;333.30;2329.60;;;;;;4961258;28;20030;-88
2021/10/08 00:29:22;;;;;;;18.20;11.32;;;333.40;2329.60;;;;;;4976739;28;20122;-88
2021/10/08 00:32:12;;;;;;;18.95;11.98;;;333.40;2329.60;;;;;;4976684;28;20039;-88
2021/10/08 00:34:50;;;;;;;26.10;16.38;;;333.40;2329.60;;;;;;4958494;28;20033;-88
2021/10/08 00:37:18;;;;;;;20.88;13.65;;;333.40;2329.60;;;;;;4973883;28;20034;-88
2021/10/08 00:40:17;;;;;;;15.32;8.55;;;333.30;2329.60;;;;;;4960726;28;20034;-90
2021/10/08 00:42:48;;;;;;;13.00;7.72;;;333.40;2329.60;;;;;;4963493;28;20027;-88
2021/10/08 00:45:20;;;;;;;11.32;7.15;;;333.40;2329.60;;;;;;4960458;28;20034;-89
2021/10/08 00:55:07;;;;;;;12.02;6.82;;;333.20;2329.60;;;;;;4921400;29;20476;-87
2021/10/08 01:16:11;;;;;;;;;;;;;;;;;;;;;
2021/10/08 01:19:57;;;;;;;;;;;;;;;;;;;;;
2021/10/08 01:32:55;;;;;;;8.95;4.80;;;333.40;2329.60;;;;;;4842265;29;20034;-87
2021/10/08 01:39:34;;;;;;;5.70;3.80;;;333.40;2329.60;;;;;;4908844;28;20122;-88
2021/10/08 01:42:01;;;;;;;5.80;3.33;;;333.40;2329.60;;;;;;4934148;28;20043;-88
2021/10/08 01:44:28;;;;;;;4.85;3.03;;;333.50;2329.60;;;;;;4943488;28;20039;-88
2021/10/08 01:47:20;;;;;;;6.03;3.40;;;333.40;2329.60;;;;;;4943464;28;20027;-87
2021/10/08 01:50:36;;;;;;;11.27;8.55;;;333.40;2329.60;;;;;;4976250;28;20482;-88
2021/10/08 01:57:47;;;;;;;;;;;;;;;;;;;;;
2021/10/08 01:59:38;;;;;;;4.18;2.75;;;333.40;2329.60;;;;;;4908663;28;20397;-88
2021/10/08 02:02:05;;;;;;;5.82;3.20;;;333.40;2329.60;;;;;;4974848;28;20027;-88
2021/10/08 02:04:31;;;;;;;6.30;3.75;;;333.40;2329.60;;;;;;4975116;28;20084;-87
2021/10/08 02:06:59;;;;;;;6.80;2.75;;;333.40;2329.60;;;;;;4975183;28;20127;-86
2021/10/08 02:09:25;;;;;;;4.53;2.80;;;333.30;2329.60;;;;;;4974797;28;20023;-87
2021/10/08 02:23:02;;;;;;;4.93;2.72;;;333.20;2329.60;;;;;;4897634;29;20048;-87
2021/10/08 02:42:44;;;;;;;5.80;3.58;;;332.90;2329.60;;;;;;4805352;29;20057;-87
2021/10/08 02:53:17;;;;;;;6.45;2.88;;;332.90;2329.60;;;;;;4736582;30;20453;-88
2021/10/08 03:00:37;;;;;;;6.50;2.88;;;332.90;2329.60;;;;;;4787289;30;20073;-89
2021/10/08 04:14:48;;;;;;;10.52;5.53;;;307.90;2304.00;;;;;;4877909;29;20145;-89
2021/10/08 08:07:26;;;;;;;14.77;9.15;;;307.60;2304.00;;;;;;4918637;29;20087;-83
2021/10/08 08:13:11;;;;;;;14.43;9.00;;;307.80;2304.00;;;;;;4886494;29;20040;-86
2021/10/08 08:30:02;;;;;;;34.38;23.55;;;307.60;2304.00;;;;;;4874378;29;20036;-87
2021/10/08 08:32:32;;;;;;;41.78;30.05;;;307.70;2304.00;;;;;;4950501;29;20094;-88
2021/10/08 08:35:03;;;;;;;64.20;40.17;;;307.50;2304.00;;;;;;4955032;29;20035;-86
2021/10/08 08:38:20;;;;;;;47.38;31.02;;;307.60;2304.00;;;;;;4962102;29;20031;-85
2021/10/08 08:40:56;;;;;;;46.35;36.20;;;307.60;2304.00;;;;;;4963848;29;20036;-85
2021/10/08 08:43:22;;;;;;;23.13;16.60;;;307.60;2304.00;;;;;;4942827;29;20035;-85
2021/10/08 08:50:21;;;;;;;;;;;;;;;;;;;;;
2021/10/08 09:04:03;;;;;;;51.92;40.10;;;307.70;2304.00;;;;;;4937884;29;20123;-83
2021/10/08 09:13:22;;;;;;;26.85;20.85;;;307.60;2304.00;;;;;;4975088;29;20091;-80
2021/10/08 09:16:25;;;;;;;21.52;16.92;;;307.70;2304.00;;;;;;4968044;29;20042;-81
2021/10/08 09:18:57;;;;;;;25.63;17.73;;;307.80;2304.00;;;;;;4919095;29;20039;-82
2021/10/08 09:21:44;;;;;;;25.02;21.70;;;307.80;2304.00;;;;;;4951261;29;20028;-82
2021/10/08 09:28:01;;;;;;;27.83;21.67;;;307.60;2304.00;;;;;;4898621;29;20132;-82
2021/10/08 09:30:54;;;;;;;25.38;19.42;;;307.70;2304.00;;;;;;4888883;29;20025;-81
2021/10/08 09:34:02;;;;;;;25.27;18.27;;;307.50;2304.00;;;;;;4954081;29;20047;-79
2021/10/08 09:36:45;;;;;;;26.30;18.42;;;307.60;2304.00;;;;;;4955700;29;20082;-81
2021/10/08 09:40:19;;;;;;;28.80;23.83;;;307.70;2304.00;;;;;;4939500;29;20031;-80
2021/10/08 09:42:45;;;;;;;16.33;11.88;;;307.60;2304.00;;;;;;4935188;29;20031;-78
2021/10/08 09:45:11;;;;;;;17.10;10.50;;;307.40;2304.00;;;;;;4951563;29;20039;-81
2021/10/08 09:48:16;;;;;;;12.75;8.57;;;307.70;2304.00;;;;;;4939802;29;20031;-79
2021/10/08 09:51:21;;;;;;;13.63;9.43;;;307.60;2304.00;;;;;;4919364;29;20039;-79
2021/10/08 09:53:47;;;;;;;13.63;10.23;;;307.80;2304.00;;;;;;4939859;29;20032;-79
2021/10/08 09:57:58;;;;;;;12.95;8.43;;;307.80;2304.00;;;;;;4956741;29;20511;-81
2021/10/08 10:00:02;;;;;;;25.98;16.75;;;307.80;2304.00;;;;;;4944608;29;20384;-81
2021/10/08 10:02:28;;;;;;;30.08;21.65;;;307.80;2304.00;;;;;;4939631;29;20027;-82
2021/10/08 10:04:59;;;;;;;34.85;20.67;;;307.80;2304.00;;;;;;4955337;28;20073;-78
2021/10/08 10:07:26;;;;;;;36.50;19.73;;;307.80;2304.00;;;;;;4974424;28;20023;-80
2021/10/08 10:09:55;;;;;;;24.98;13.20;;;307.70;2304.00;;;;;;4974398;28;20034;-78
2021/10/08 10:12:22;;;;;;;20.38;11.70;;;307.80;2304.00;;;;;;4955187;28;20022;-80
2021/10/08 10:27:55;;;;;;;48.72;31.55;;;307.70;2304.00;;;;;;4860309;29;20454;-81
2021/10/08 10:30:21;;;;;;;51.97;33.53;;;307.70;2304.00;;;;;;4897714;29;20080;-80
2021/10/08 10:32:50;;;;;;;39.50;28.20;;;307.80;2304.00;;;;;;4955748;28;20043;-80
2021/10/08 10:39:40;;;;;;;34.75;21.85;;;307.70;2304.00;;;;;;4991338;28;20027;-83
2021/10/08 10:42:42;;;;;;;32.03;21.83;;;307.60;2304.00;;;;;;4950390;28;20062;-81
2021/10/08 10:45:28;;;;;;;44.78;32.40;;;307.70;2304.00;;;;;;4987354;28;20038;-82
2021/10/08 10:51:27;;;;;;;43.22;32.25;;;307.60;2304.00;;;;;;4988784;28;20383;-83
2021/10/08 10:53:58;;;;;;;37.20;26.75;;;307.70;2304.00;;;;;;4982618;28;20031;-83
2021/10/08 10:56:46;;;;;;;37.63;24.98;;;307.60;2304.00;;;;;;4957794;28;20022;-83
2021/10/08 10:59:51;;;;;;;36.35;25.45;;;307.60;2304.00;;;;;;4957496;28;20027;-84
2021/10/08 11:02:48;;;;;;;31.52;22.15;;;307.60;2304.00;;;;;;4940600;28;20167;-84
2021/10/08 11:05:26;;;;;;;22.75;16.88;;;307.60;2304.00;;;;;;4941765;28;20039;-84
2021/10/08 11:08:31;;;;;;;25.45;15.00;;;307.50;2304.00;;;;;;4942589;28;20051;-81
2021/10/08 11:11:03;;;;;;;26.60;21.10;;;307.40;2304.00;;;;;;4965773;28;20082;-84
2021/10/08 11:17:57;;;;;;;;;;;;;;;;;;;;;
2021/10/08 11:21:20;;;;;;;;;;;;;;;;;;;;;
2021/10/08 11:24:48;;;;;;;18.55;15.02;;;307.60;2304.00;;;;;;4956713;28;20042;-83
2021/10/08 11:34:13;;;;;;;16.70;12.68;;;307.20;2304.00;;;;;;4900010;29;20029;-83
2021/10/08 11:39:56;;;;;;;17.55;11.93;;;307.20;2304.00;;;;;;4914738;29;20043;-79
2021/10/08 11:42:25;;;;;;;14.95;11.80;;;307.30;2304.00;;;;;;4902187;29;20032;-78
2021/10/08 11:51:30;;;;;;;23.55;14.70;;;307.80;2304.00;;;;;;4860302;29;20045;-79
2021/10/08 11:54:25;;;;;;;14.13;10.02;;;307.80;2304.00;;;;;;4893399;29;20043;-79
2021/10/08 11:57:54;;;;;;;17.33;12.32;;;307.80;2304.00;;;;;;4892436;28;20576;-80
2021/10/08 12:00:27;;;;;;;14.30;10.23;;;307.80;2304.00;;;;;;4914481;28;20039;-80
2021/10/08 12:03:16;;;;;;;13.15;8.05;;;307.80;2304.00;;;;;;4976844;28;20039;-79
2021/10/08 12:12:59;;;;;;;25.25;14.15;;;308.00;2304.00;;;;;;4806775;29;20590;-79
2021/10/08 12:15:32;;;;;;;25.52;16.75;;;307.90;2304.00;;;;;;4810146;29;20049;-81
2021/10/08 12:18:05;;;;;;;23.70;16.00;;;307.90;2304.00;;;;;;4825648;29;20073;-79
2021/10/08 12:20:34;;;;;;;25.88;17.65;;;307.80;2304.00;;;;;;4915372;29;20040;-81
2021/10/08 12:26:43;;;;;;;32.15;22.23;;;308.00;2304.00;;;;;;4883485;29;20120;-79
2021/10/08 12:29:12;;;;;;;28.98;19.25;;;308.10;2304.00;;;;;;4941175;29;20028;-81
2021/10/08 12:32:35;;;;;;;37.05;23.38;;;307.90;2304.00;;;;;;4941151;29;20035;-77
2021/10/08 12:39:32;;;;;;;;;;;;;;;;;;;;;
2021/10/08 12:42:24;;;;;;;;;;;307.90;2304.00;;;;;;4847815;29;20041;-82
2021/10/08 12:44:54;;;;;;;24.05;16.63;;;307.80;2304.00;;;;;;4956643;29;19934;-80
2021/10/08 12:47:25;;;;;;;18.60;12.02;;;307.80;2304.00;;;;;;4940304;29;20035;-79
2021/10/08 12:50:06;;;;;;;42.75;26.80;;;307.90;2304.00;;;;;;4940590;29;20427;-81
2021/10/08 12:52:34;;;;;;;49.42;40.00;;;307.80;2304.00;;;;;;4940276;29;20023;-79
2021/10/08 12:55:51;;;;;;;27.23;21.25;;;307.60;2304.00;;;;;;4957496;28;20023;-80
2021/10/08 12:59:05;;;;;;;27.50;19.55;;;307.70;2304.00;;;;;;4927293;29;20043;-81
2021/10/08 13:01:35;;;;;;;22.60;16.60;;;307.80;2304.00;;;;;;4939413;29;20039;-82
2021/10/08 13:04:50;;;;;;;13.98;9.73;;;307.70;2304.00;;;;;;4948487;28;20046;-81
2021/10/08 13:08:30;;;;;;;89.03;68.38;;;307.80;2304.00;;;;;;4991489;28;20124;-81
2021/10/08 13:10:57;;;;;;;31.88;22.08;;;307.80;2304.00;;;;;;4975638;28;20110;-80
2021/10/08 13:14:09;;;;;;;17.95;12.45;;;307.80;2304.00;;;;;;4959411;28;20030;-82
2021/10/08 13:17:24;;;;;;;22.27;16.38;;;307.70;2304.00;;;;;;4901228;29;20067;-82
2021/10/08 13:20:50;;;;;;;45.80;38.10;;;307.80;2304.00;;;;;;4834938;29;20133;-84
2021/10/08 13:24:12;;;;;;;;;;;;;;;;;;;;;
2021/10/08 13:30:37;;;;;;;36.70;26.67;;;307.90;2304.00;;;;;;4974245;28;20031;-85
2021/10/08 14:12:19;;;;;;;21.80;13.43;;;307.60;2304.00;;;;;;4842114;29;20499;-83
2021/10/08 14:15:22;;;;;;;44.72;35.60;;;307.60;2304.00;;;;;;4774491;29;20062;-84
2021/10/08 14:23:12;;;;;;;;;;;;;;;;;;;;;
2021/10/08 14:25:20;;;;;;;28.35;23.25;;;307.30;2304.00;;;;;;4875677;29;20045;-83
2021/10/08 14:28:45;;;;;;;39.22;30.52;;;307.30;2304.00;;;;;;4877149;29;20056;-81
2021/10/08 14:32:31;;;;;;;;;;;;;;;;;;;;;
2021/10/08 14:38:52;;;;;;;22.42;15.82;;;282.50;2278.40;;;;;;4801990;29;20039;-81
2021/10/08 14:42:10;;;;;;;36.05;26.25;;;307.30;2304.00;;;;;;4747308;29;20045;-81
2021/10/08 14:44:14;;;;;;;36.78;24.88;;;307.30;2304.00;;;;;;4893556;29;20044;-83
2021/10/08 14:46:53;;;;;;;44.75;35.45;;;307.30;2304.00;;;;;;4900686;28;20036;-81
2021/10/08 14:49:23;;;;;;;37.45;29.27;;;307.40;2304.00;;;;;;4990181;28;20390;-84
2021/10/08 14:52:23;;;;;;;26.48;19.10;;;307.40;2304.00;;;;;;4954270;28;20035;-83
2021/10/08 14:58:10;;;;;;;26.42;16.60;;;282.50;2278.40;;;;;;4896815;29;20024;-82
2021/10/08 15:07:57;;;;;;;26.73;18.83;;;282.40;2278.40;;;;;;4806397;29;20118;-85
2021/10/08 15:11:32;;;;;;;29.83;22.05;;;282.30;2278.40;;;;;;4828750;29;20121;-84
2021/10/08 15:14:28;;;;;;;15.82;11.20;;;282.20;2278.40;;;;;;4859344;29;20026;-86
2021/10/08 15:17:12;;;;;;;28.20;17.73;;;282.10;2278.40;;;;;;4856878;29;20507;-84
2021/10/08 15:20:10;;;;;;;20.67;15.25;;;282.10;2278.40;;;;;;4845923;29;20049;-82
2021/10/08 15:23:03;;;;;;;19.92;14.63;;;282.10;2278.40;;;;;;4877041;29;20124;-85
2021/10/08 15:25:35;;;;;;;25.73;15.60;;;282.30;2278.40;;;;;;4878133;29;20037;-83
2021/10/08 15:28:30;;;;;;;25.52;15.90;;;282.50;2278.40;;;;;;4885549;29;20122;-84
2021/10/08 15:32:14;;;;;;;20.48;12.80;;;282.40;2278.40;;;;;;4918521;29;20036;-84
2021/10/08 15:34:28;;;;;;;21.67;15.65;;;282.20;2278.40;;;;;;4910368;29;20139;-81
2021/10/08 15:37:17;;;;;;;33.25;23.17;;;282.20;2278.40;;;;;;4899932;29;20106;-81
2021/10/08 15:44:31;;;;;;;24.38;17.15;;;282.20;2278.40;;;;;;4914848;29;20040;-84
2021/10/08 15:47:59;;;;;;;;;;;;;;;;;;;;;
2021/10/08 15:51:10;;;;;;;29.15;18.90;;;282.10;2278.40;;;;;;4877510;29;20033;-85
2021/10/08 15:54:42;;;;;;;26.02;17.30;;;281.90;2278.40;;;;;;4914839;29;20032;-86
2021/10/08 15:57:43;;;;;;;24.05;18.73;;;282.10;2278.40;;;;;;4914566;29;20039;-84
2021/10/08 16:00:36;;;;;;;28.88;18.30;;;282.30;2278.40;;;;;;4900517;29;20527;-84
2021/10/08 16:03:30;;;;;;;;;;;;;;;;;;;;;
2021/10/08 16:13:36;;;;;;;33.58;18.85;;;282.10;2278.40;;;;;;4860304;29;20112;-84
2021/10/08 16:16:25;;;;;;;22.35;13.57;;;282.20;2278.40;;;;;;4894580;29;20037;-83
2021/10/08 16:19:12;;;;;;;16.60;12.52;;;282.10;2278.40;;;;;;4897954;29;20044;-85
2021/10/08 16:22:04;;;;;;;33.13;24.25;;;282.40;2278.40;;;;;;4899516;29;20048;-86
2021/10/08 16:24:36;;;;;;;30.27;23.40;;;282.40;2278.40;;;;;;4914637;29;20071;-84
2021/10/08 16:27:13;;;;;;;19.13;12.98;;;282.30;2278.40;;;;;;4919084;29;20036;-84
2021/10/08 16:30:20;;;;;;;18.52;13.60;;;282.20;2278.40;;;;;;4887078;29;20032;-86
2021/10/08 16:32:50;;;;;;;18.80;12.02;;;282.30;2278.40;;;;;;4918745;29;20060;-85
2021/10/08 16:39:48;;;;;;;24.90;15.73;;;282.30;2278.40;;;;;;4957998;29;20035;-87
2021/10/08 16:43:42;;;;;;;20.52;16.27;;;282.30;2278.40;;;;;;4917506;29;20044;-86
2021/10/08 16:46:41;;;;;;;26.10;16.98;;;282.30;2278.40;;;;;;4937158;28;20027;-85
2021/10/08 16:49:57;;;;;;;;;;;;;;;;;;;;;
2021/10/08 16:53:10;;;;;;;32.03;20.08;;;282.30;2278.40;;;;;;4957214;28;20031;-86
2021/10/08 16:56:35;;;;;;;24.40;16.38;;;282.40;2278.40;;;;;;4951649;28;20035;-86
2021/10/08 16:59:19;;;;;;;42.40;26.83;;;282.30;2278.40;;;;;;4924181;28;20027;-85
2021/10/08 17:05:58;;;;;;;29.30;21.48;;;282.30;2278.40;;;;;;4896951;29;20100;-84
2021/10/08 17:09:02;;;;;;;34.88;27.17;;;282.30;2278.40;;;;;;4898399;29;20036;-84
2021/10/08 17:15:32;;;;;;;;;;;;;;;;;;;;;
2021/10/08 17:19:04;;;;;;;;;;;;;;;;;;;;;
2021/10/08 17:22:26;;;;;;;45.47;32.72;;;282.30;2278.40;;;;;;4770983;29;20481;-84
2021/10/08 17:28:12;;;;;;;30.05;21.77;;;282.30;2278.40;;;;;;4872020;29;20521;-81
2021/10/08 17:35:05;;;;;;;19.63;13.18;;;281.90;2278.40;;;;;;4860825;29;20164;-86
2021/10/08 17:41:51;;;;;;;19.33;12.68;;;281.80;2278.40;;;;;;4860401;29;20075;-86
2021/10/08 17:44:58;;;;;;;26.25;22.13;;;281.90;2278.40;;;;;;4857807;29;20045;-85
2021/10/08 17:48:31;;;;;;;34.78;28.25;;;281.60;2278.40;;;;;;4870706;29;20122;-85
2021/10/08 17:51:26;;;;;;;25.40;18.77;;;281.60;2278.40;;;;;;4904132;29;20154;-86
2021/10/08 17:54:43;;;;;;;38.88;27.77;;;256.90;2252.80;;;;;;4910470;29;20045;-85
2021/10/08 18:05:18;;;;;;;14.20;9.30;;;281.70;2278.40;;;;;;4897029;29;20120;-85
2021/10/08 18:08:26;;;;;;;15.15;8.63;;;281.70;2278.40;;;;;;4892941;29;20502;-84
2021/10/08 18:11:59;;;;;;;18.45;13.10;;;281.70;2278.40;;;;;;4890765;29;20424;-84
2021/10/08 18:15:10;;;;;;;24.98;16.80;;;281.80;2278.40;;;;;;4843385;29;20118;-86
2021/10/08 18:18:34;;;;;;;20.58;14.57;;;281.70;2278.40;;;;;;4840618;29;20046;-83
2021/10/08 18:21:27;;;;;;;23.23;16.83;;;281.90;2278.40;;;;;;4822830;29;20119;-85
2021/10/08 18:24:22;;;;;;;23.10;17.02;;;281.60;2278.40;;;;;;4858211;29;20120;-84
2021/10/08 18:27:48;;;;;;;29.55;19.48;;;256.90;2252.80;;;;;;4870032;29;20037;-84
2021/10/08 18:30:49;;;;;;;21.33;14.98;;;281.60;2278.40;;;;;;4870540;29;20034;-85
2021/10/08 18:33:24;;;;;;;37.65;25.67;;;256.90;2252.80;;;;;;4856268;29;20049;-84
2021/10/08 18:36:07;;;;;;;27.92;16.85;;;281.80;2278.40;;;;;;4880439;29;20408;-84
2021/10/08 18:39:33;;;;;;;20.98;14.57;;;281.70;2278.40;;;;;;4895789;29;20568;-86
2021/10/08 18:42:16;;;;;;;17.10;12.18;;;281.80;2278.40;;;;;;4895919;29;20146;-80
2021/10/08 18:49:44;;;;;;;;;;;;;;;;;;;;;
2021/10/08 18:52:49;;;;;;;17.02;10.32;;;281.70;2278.40;;;;;;4933889;29;20392;-82
2021/10/08 18:55:45;;;;;;;22.83;15.63;;;281.70;2278.40;;;;;;4954709;29;20039;-82
2021/10/08 18:59:15;;;;;;;36.50;26.52;;;281.70;2278.40;;;;;;4946492;29;20034;-84
2021/10/08 19:02:09;;;;;;;22.55;16.10;;;281.70;2278.40;;;;;;4944407;29;20024;-85
2021/10/08 19:04:56;;;;;;;20.58;12.07;;;281.60;2278.40;;;;;;4938433;29;20039;-82
2021/10/08 19:07:23;;;;;;;15.75;10.00;;;281.70;2278.40;;;;;;5010091;28;20045;-78
2021/10/08 19:09:49;;;;;;;18.63;12.32;;;281.70;2278.40;;;;;;5029451;28;20030;-83
2021/10/08 19:23:20;;;;;;;37.28;27.92;;;281.80;2278.40;;;;;;4971857;28;20046;-85
2021/10/08 19:26:13;;;;;;;32.22;23.88;;;281.60;2278.40;;;;;;4980641;28;20031;-84
2021/10/08 19:28:47;;;;;;;35.45;26.90;;;281.80;2278.40;;;;;;4959315;29;20095;-85
2021/10/08 19:31:35;;;;;;;60.33;34.92;;;281.70;2278.40;;;;;;4962925;29;20031;-86
2021/10/08 19:34:03;;;;;;;46.60;28.55;;;281.70;2278.40;;;;;;4962267;29;20039;-82
2021/10/08 19:36:53;;;;;;;26.60;15.98;;;282.20;2278.40;;;;;;4958465;28;20093;-83
2021/10/08 19:39:49;;;;;;;33.28;20.77;;;281.70;2278.40;;;;;;4956706;28;20375;-84
2021/10/08 19:42:35;;;;;;;58.40;36.53;;;281.70;2278.40;;;;;;4963583;28;20114;-82
2021/10/08 19:45:22;;;;;;;48.85;28.90;;;256.90;2252.80;;;;;;4954161;29;20031;-83
2021/10/08 19:48:09;;;;;;;25.42;15.88;;;256.90;2252.80;;;;;;4953393;29;20036;-83
2021/10/08 19:50:39;;;;;;;26.27;16.80;;;256.70;2252.80;;;;;;4940491;29;20040;-82
2021/10/08 19:53:08;;;;;;;24.95;16.38;;;281.60;2278.40;;;;;;4955554;28;20035;-84
2021/10/08 19:55:56;;;;;;;20.02;10.80;;;281.60;2278.40;;;;;;4956701;28;20062;-84
2021/10/08 19:58:24;;;;;;;24.52;16.73;;;256.70;2252.80;;;;;;4956980;29;20043;-83
2021/10/08 20:00:52;;;;;;;29.67;19.40;;;256.90;2252.80;;;;;;4957259;29;20062;-85
2021/10/08 20:03:20;;;;;;;39.55;23.85;;;256.90;2252.80;;;;;;4942772;29;20066;-82
2021/10/08 20:05:58;;;;;;;30.48;18.77;;;281.90;2278.40;;;;;;4940254;29;20039;-82
2021/10/08 20:13:59;;;;;;;35.53;22.10;;;256.90;2252.80;;;;;;4966616;28;20069;-81
2021/10/08 20:16:39;;;;;;;23.30;17.05;;;256.90;2252.80;;;;;;4959077;28;20031;-82
2021/10/08 20:19:15;;;;;;;40.97;26.67;;;256.70;2252.80;;;;;;4927144;28;20059;-83
2021/10/08 20:22:31;;;;;;;129.20;76.43;;;256.90;2252.80;;;;;;4976055;28;20554;-82
2021/10/08 20:25:04;;;;;;;62.13;36.05;;;256.90;2252.80;;;;;;4959414;28;20107;-82
2021/10/08 20:27:37;;;;;;;38.97;22.30;;;256.80;2252.80;;;;;;4956885;28;20169;-83
2021/10/08 20:30:32;;;;;;;33.85;18.85;;;282.00;2278.40;;;;;;4962585;28;20486;-83
2021/10/08 20:32:59;;;;;;;16.35;9.52;;;256.90;2252.80;;;;;;4943603;28;20148;-83
2021/10/08 20:35:32;;;;;;;15.63;7.55;;;256.90;2252.80;;;;;;4958688;28;20082;-83
2021/10/08 20:37:59;;;;;;;15.23;8.35;;;256.90;2252.80;;;;;;4966531;28;20031;-83
2021/10/08 20:40:32;;;;;;;17.02;8.80;;;256.80;2252.80;;;;;;4943233;28;20031;-82
2021/10/08 20:43:13;;;;;;;21.73;14.63;;;256.80;2252.80;;;;;;4976383;28;20035;-83
2021/10/08 20:45:44;;;;;;;20.98;10.90;;;256.80;2252.80;;;;;;4975172;28;20426;-83
2021/10/08 20:48:15;;;;;;;16.38;10.70;;;281.90;2278.40;;;;;;4940209;29;20058;-83
2021/10/08 20:55:14;;;;;;;24.25;14.05;;;256.80;2252.80;;;;;;4909717;29;20042;-86
2021/10/08 21:02:52;;;;;;;27.92;19.38;;;256.80;2252.80;;;;;;4770932;30;20058;-87
2021/10/08 21:06:38;;;;;;;47.63;26.35;;;256.70;2252.80;;;;;;4649352;30;20057;-88
2021/10/08 21:10:12;;;;;;;51.20;26.25;;;256.70;2252.80;;;;;;4566085;31;20478;-87
2021/10/08 21:16:21;;;;;;;30.70;16.45;;;256.50;2252.80;;;;;;5070086;28;20323;-86
2021/10/08 21:19:30;;;;;;;27.38;16.67;;;256.70;2252.80;;;;;;5019409;28;20415;-85
2021/10/08 21:22:05;;;;;;;40.95;23.83;;;256.50;2252.80;;;;;;5052145;28;20035;-86
2021/10/08 21:24:34;;;;;;;;;;;256.60;2252.80;;;;;;5017714;28;20037;-86
2021/10/08 21:28:14;;;;;;;21.60;12.45;;;256.60;2252.80;;;;;;5015243;28;20288;-87
2021/10/08 21:31:24;;;;;;;22.55;12.85;;;256.60;2252.80;;;;;;4950514;29;20063;-86
2021/10/08 21:35:09;;;;;;;16.20;9.88;;;256.50;2252.80;;;;;;4912734;29;20035;-87
2021/10/08 21:45:45;;;;;;;25.60;16.23;;;256.50;2252.80;;;;;;4856574;29;20109;-85
2021/10/08 21:49:14;;;;;;;28.70;16.95;;;256.50;2252.80;;;;;;4819619;29;20488;-86
2021/10/08 21:51:49;;;;;;;21.02;12.65;;;256.60;2252.80;;;;;;4817042;29;20042;-81
2021/10/08 21:54:16;;;;;;;25.00;14.32;;;256.50;2252.80;;;;;;4873672;29;20033;-82
2021/10/08 21:56:42;;;;;;;22.52;15.70;;;256.60;2252.80;;;;;;4864066;29;20091;-81
2021/10/08 21:59:08;;;;;;;19.88;12.07;;;256.30;2252.80;;;;;;4859045;29;20393;-82
2021/10/08 22:02:14;;;;;;;15.43;8.45;;;281.80;2278.40;;;;;;4932149;28;20038;-84
2021/10/08 22:04:58;;;;;;;14.80;8.30;;;256.60;2252.80;;;;;;5032354;28;20033;-83
2021/10/08 22:07:26;;;;;;;18.63;11.65;;;256.50;2252.80;;;;;;5032490;28;20029;-83
2021/10/08 22:09:54;;;;;;;17.83;9.98;;;256.60;2252.80;;;;;;5051444;28;20475;-82
2021/10/08 22:12:21;;;;;;;16.13;10.45;;;256.40;2252.80;;;;;;5035210;28;20060;-83
2021/10/08 22:15:08;;;;;;;18.75;10.52;;;256.50;2252.80;;;;;;5048108;28;20099;-85
2021/10/08 22:18:08;;;;;;;17.20;11.25;;;256.10;2252.80;;;;;;5002001;28;20037;-86
2021/10/08 22:21:41;;;;;;;14.77;10.30;;;256.00;2252.80;;;;;;5028031;28;20036;-84
2021/10/08 22:34:29;;;;;;;10.98;6.50;;;256.20;2252.80;;;;;;4995825;28;20405;-88
2021/10/08 22:37:32;;;;;;;12.68;6.65;;;256.30;2252.80;;;;;;4979609;28;20157;-88
2021/10/08 22:44:23;;;;;;;12.27;6.15;;;256.30;2252.80;;;;;;4976384;28;20034;-87
2021/10/08 22:47:43;;;;;;;13.50;5.60;;;256.30;2252.80;;;;;;4975856;28;20070;-87
2021/10/08 22:54:45;;;;;;;12.20;5.45;;;256.30;2252.80;;;;;;4956424;29;20034;-86
2021/10/08 23:01:29;;;;;;;8.70;5.38;;;256.40;2252.80;;;;;;4995018;28;20135;-85
2021/10/08 23:22:41;;;;;;;8.93;4.97;;;256.20;2252.80;;;;;;4888742;29;20169;-87
2021/10/08 23:26:16;;;;;;;7.05;4.13;;;256.20;2252.80;;;;;;4911670;29;20040;-86
2021/10/08 23:50:06;;;;;;;7.63;4.05;;;256.20;2252.80;;;;;;4917634;29;20027;-88
2021/10/08 23:53:30;;;;;;;6.55;3.97;;;256.30;2252.80;;;;;;4917380;29;20028;-88
